Thunder radar more information blitzortung!


Radar de pluja more information rain snow radar


Visita la nostra xarxa de llocs de meteo:

Template documentation
and downloads

And another site



No particular awareness of the weather is required.    There are no Weather-warnings

Pagina Historial Weather Underground text

Diari Resum Octubre 11, 2017 Unitats:  Mètric    Imperial   Tant
« Previous Dia
SegĂźent Dia »
Diari Setmana Mensual Anual Personalitzada
  Maxima: Minima: Media:
Temperatura: -17.8 °C -10.4 °C -6.4 °C
Punt de rosada: -17.8 °C -11.3 °C -9.4 °C
Humitat: Humidity % 53 % 73 %
Wind Speed: 0 km/h 0 km/h 9 km/h
RĂ fegues de vent: 0 km/h - -
Vent:- - SW
Pression baro: 0 hPa 34567.7 hPa -
Precipitacions: 0 mm    
Historical Graphs
 
 
Dades de taula per Octubre 11, 2017
Temps Temperatura Punt de rosada Pression baro Vent Wind Speed RĂ fegues de vent Humitat Rainfall Rate (Hourly)
-17.8 °C -17.8 °C 0 hPa Calm     Humidity % 0 mm
00:00 -9.4 °C -10.6 °C 34601.5 hPa Calm   2.6 km/h 88 % 0 mm
00:02 -7.9 °C -9.5 °C 34601.5 hPa Calm     83 % 0 mm
00:07 -7.9 °C -9.6 °C 34601.5 hPa Calm     83 % 0 mm
00:10 -9.6 °C -10.7 °C 34601.5 hPa SW 2.6 km/h 5.1 km/h 88 % 0 mm
00:12 -8 °C -9.6 °C 34601.5 hPa Calm     83 % 0 mm
00:20 -9.6 °C -10.6 °C 34601.5 hPa Calm   2.6 km/h 89 % 0 mm
00:30 -9.7 °C -10.7 °C 34601.5 hPa Calm     89 % 0 mm
00:40 -9.7 °C -10.7 °C 34601.5 hPa Calm     89 % 0 mm
00:50 -9.8 °C -10.8 °C 34601.5 hPa Calm     89 % 0 mm
01:00 -9.8 °C -10.8 °C 34601.5 hPa Calm     89 % 0 mm
01:10 -9.9 °C -10.9 °C 34601.5 hPa Calm     89 % 0 mm
01:20 -9.9 °C -10.9 °C 34601.5 hPa Calm     89 % 0 mm
01:30 -10.1 °C -11.1 °C 34601.5 hPa Calm   2.6 km/h 89 % 0 mm
01:40 -10.2 °C -11.2 °C 34601.5 hPa SW 2.6 km/h 5.1 km/h 89 % 0 mm
01:50 -10.1 °C -11.1 °C 34601.5 hPa Calm   5.1 km/h 89 % 0 mm
02:00 -10.2 °C -11.2 °C 34601.5 hPa Calm     89 % 0 mm
02:10 -10.2 °C -11.2 °C 34601.5 hPa Calm   2.6 km/h 89 % 0 mm
02:20 -10.2 °C -11.1 °C 34601.5 hPa SW 2.6 km/h 5.1 km/h 90 % 0 mm
02:30 -10.3 °C -11.2 °C 34601.5 hPa Calm     90 % 0 mm
02:40 -10.3 °C -11.2 °C 34601.5 hPa SW 2.6 km/h 5.1 km/h 90 % 0 mm
02:50 -10.3 °C -11.2 °C 34601.5 hPa SW 2.6 km/h 2.6 km/h 90 % 0 mm
03:00 -10.4 °C -11.3 °C 34567.7 hPa Calm     90 % 0 mm
03:10 -10.3 °C -11.2 °C 34567.7 hPa Calm   2.6 km/h 90 % 0 mm
03:20 -10.2 °C -11 °C 34601.5 hPa SW 2.6 km/h 5.1 km/h 91 % 0 mm
03:30 -10.2 °C -10.9 °C 34567.7 hPa Calm     91 % 0 mm
03:40 -10.2 °C -11.1 °C 34567.7 hPa Calm   5.1 km/h 90 % 0 mm
03:50 -10.1 °C -11 °C 34601.5 hPa SW 2.6 km/h 2.6 km/h 90 % 0 mm
04:00 -10 °C -10.9 °C 34601.5 hPa SW 2.6 km/h 5.1 km/h 90 % 0 mm
04:20 -9.8 °C -10.7 °C 34635.4 hPa SW 5.1 km/h 5.1 km/h 90 % 0 mm
04:40 -9.5 °C -10.4 °C 34635.4 hPa SW 5.1 km/h 7.7 km/h 90 % 0 mm
04:50 -9.2 °C -10.1 °C 34635.4 hPa SW 2.6 km/h 7.7 km/h 90 % 0 mm
05:00 -8.9 °C -9.9 °C 34635.4 hPa SW 2.6 km/h 5.1 km/h 89 % 0 mm
05:10 -8.7 °C -9.8 °C 34635.4 hPa SW 2.6 km/h 7.7 km/h 88 % 0 mm
05:20 -8.3 °C -9.5 °C 34635.4 hPa Calm   5.1 km/h 87 % 0 mm
10:29 -7.7 °C -9.3 °C 34635.4 hPa SSE 5.6 km/h 5.6 km/h 84 % 0 mm
10:30 -7.7 °C -9.3 °C 34635.4 hPa SE 6 km/h 6 km/h 84 % 0 mm
10:35 -7.5 °C -9.1 °C 34635.4 hPa SE 9.3 km/h 9.3 km/h 83 % 0 mm
10:40 -7.2 °C -9.2 °C 34635.4 hPa ESE 6 km/h 6 km/h 80 % 0 mm
10:45 -6.9 °C -9 °C 34669.3 hPa South 6 km/h 6 km/h 79 % 0 mm
10:50 -6.7 °C -8.8 °C 34669.3 hPa SW 6 km/h 6 km/h 79 % 0 mm
10:55 -6.5 °C -8.9 °C 34669.3 hPa SE 6 km/h 6 km/h 76 % 0 mm
11:00 -6.4 °C -8.7 °C 34669.3 hPa ESE 6.3 km/h 6.3 km/h 77 % 0 mm
11:05 -6.5 °C -9.1 °C 34669.3 hPa ENE 6 km/h 6 km/h 75 % 0 mm
11:10 -6.5 °C -9.1 °C 34669.3 hPa East 6.3 km/h 6.3 km/h 75 % 0 mm
11:15 -6.3 °C -8.9 °C 34635.4 hPa ESE 6 km/h 6 km/h 75 % 0 mm
11:20 -6.1 °C -8.7 °C 34635.4 hPa SSE 6 km/h 6 km/h 74 % 0 mm
11:25 -5.9 °C -8.6 °C 34635.4 hPa West 6 km/h 6 km/h 74 % 0 mm
11:30 -5.9 °C -8.7 °C 34635.4 hPa ESE 6.3 km/h 6.3 km/h 73 % 0 mm
11:35 -5.7 °C -8.8 °C 34635.4 hPa SSE 9 km/h 9 km/h 71 % 0 mm
11:40 -5.5 °C -8.4 °C 34635.4 hPa NW 9 km/h 9 km/h 72 % 0 mm
11:45 -5.2 °C -8.3 °C 34635.4 hPa SSW 3.7 km/h   71 % 0 mm
11:50 -5.3 °C -8.4 °C 34635.4 hPa SW 6.8 km/h 6.8 km/h 70 % 0 mm
11:55 -5.4 °C -8.7 °C 34635.4 hPa South 9 km/h 9 km/h 70 % 0 mm
12:00 -5.2 °C -8.6 °C 34635.4 hPa SSE 11.9 km/h 11.9 km/h 69 % 0 mm
12:05 -4.9 °C -8.3 °C 34635.4 hPa WNW 11.9 km/h 11.9 km/h 69 % 0 mm
12:10 -5.1 °C -8.4 °C 34635.4 hPa South 9 km/h 9 km/h 69 % 0 mm
12:15 -4.9 °C -8.4 °C 34635.4 hPa SW 11.9 km/h 11.9 km/h 68 % 0 mm
12:20 -4.8 °C -8.2 °C 34635.4 hPa SW 17.9 km/h 17.9 km/h 68 % 0 mm
12:25 -4.6 °C -8.2 °C 34635.4 hPa SW 12.7 km/h 12.7 km/h 67 % 0 mm
12:30 -4.3 °C -8.3 °C 34635.4 hPa SSW 7.6 km/h 7.6 km/h 64 % 0 mm
12:35 -4.3 °C -8.5 °C 34635.4 hPa SSW 17.9 km/h 17.9 km/h 63 % 0 mm
12:40 -4.4 °C -8.6 °C 34635.4 hPa South 15 km/h 15 km/h 63 % 0 mm
12:45 -4.5 °C -8.5 °C 34635.4 hPa SW 15 km/h 15 km/h 64 % 0 mm
12:50 -4.6 °C -8.6 °C 34635.4 hPa SW 17.9 km/h 17.9 km/h 64 % 0 mm
12:55 -4.3 °C -8.5 °C 34635.4 hPa SSW 20.3 km/h 20.3 km/h 63 % 0 mm
13:00 -4.1 °C -8.6 °C 34635.4 hPa SW 14 km/h 14 km/h 61 % 0 mm
13:05 -4.2 °C -8.6 °C 34635.4 hPa South 9 km/h 9 km/h 61 % 0 mm
13:10 -4.3 °C -8.7 °C 34635.4 hPa West 10.3 km/h 10.3 km/h 61 % 0 mm
13:15 -4.1 °C -8.6 °C 34635.4 hPa SW 11.9 km/h 11.9 km/h 61 % 0 mm
13:20 -4.1 °C -8.7 °C 34635.4 hPa SSE 6 km/h 6 km/h 60 % 0 mm
13:25 -4.1 °C -8.8 °C 34635.4 hPa SSE 17.9 km/h 17.9 km/h 59 % 0 mm
13:30 -3.7 °C -8.7 °C 34601.5 hPa South 6.8 km/h 6.8 km/h 57 % 0 mm
13:35 -3.6 °C -8.7 °C 34601.5 hPa SW 15 km/h 15 km/h 57 % 0 mm
13:40 -3.6 °C -8.7 °C 34601.5 hPa SSW 15 km/h 15 km/h 57 % 0 mm
13:45 -3.5 °C -8.7 °C 34601.5 hPa SSW 9 km/h 9 km/h 56 % 0 mm
13:50 -3.5 °C -8.9 °C 34601.5 hPa WSW 17.9 km/h 17.9 km/h 55 % 0 mm
13:55 -3.3 °C -8.7 °C 34601.5 hPa SW 9 km/h 9 km/h 55 % 0 mm
14:00 -3.2 °C -8.5 °C 34601.5 hPa West 17.9 km/h 17.9 km/h 56 % 0 mm
14:05 -3.7 °C -9.2 °C 34601.5 hPa SW 12.2 km/h 12.2 km/h 54 % 0 mm
14:10 -3.4 °C -8.9 °C 34601.5 hPa SW 11.9 km/h 11.9 km/h 54 % 0 mm
14:15 -3.4 °C -9 °C 34601.5 hPa South 15 km/h 15 km/h 54 % 0 mm
14:20 -3.3 °C -8.8 °C 34601.5 hPa SW 20.9 km/h 20.9 km/h 54 % 0 mm
14:25 -3.4 °C -9 °C 34601.5 hPa SW 17.9 km/h 17.9 km/h 54 % 0 mm
14:30 -3.5 °C -9.1 °C 34601.5 hPa SW 9 km/h 9 km/h 54 % 0 mm
14:35 -3.5 °C -9.1 °C 34601.5 hPa WSW 23.8 km/h 23.8 km/h 54 % 0 mm
14:40 -3.4 °C -9 °C 34601.5 hPa SSE 17.9 km/h 17.9 km/h 54 % 0 mm
14:45 -3.5 °C -9.1 °C 34601.5 hPa WSW 17.9 km/h 17.9 km/h 54 % 0 mm
14:50 -3.5 °C -9.1 °C 34601.5 hPa South 12.2 km/h 12.2 km/h 54 % 0 mm
14:55 -3.7 °C -9.2 °C 34601.5 hPa SW 23.8 km/h 23.8 km/h 54 % 0 mm
15:00 -3.7 °C -9.3 °C 34601.5 hPa SSE 20.9 km/h 20.9 km/h 54 % 0 mm
15:05 -3.6 °C -9.1 °C 34601.5 hPa SSW 15 km/h 15 km/h 54 % 0 mm
15:10 -3.6 °C -9.1 °C 34601.5 hPa SW 17.9 km/h 17.9 km/h 54 % 0 mm
15:15 -3.3 °C -8.7 °C 34601.5 hPa SW 12.7 km/h 12.7 km/h 55 % 0 mm
15:20 -3.6 °C -9.1 °C 34601.5 hPa WSW 24.3 km/h 24.3 km/h 54 % 0 mm
15:25 -3.7 °C -9.3 °C 34601.5 hPa SSE 23.8 km/h 23.8 km/h 54 % 0 mm
15:30 -3.6 °C -8.9 °C 34567.7 hPa WSW 15 km/h 15 km/h 55 % 0 mm
15:35 -3.5 °C -9.1 °C 34567.7 hPa West 11.9 km/h 11.9 km/h 54 % 0 mm
15:40 -3.4 °C -9 °C 34567.7 hPa SW 15 km/h 15 km/h 54 % 0 mm
15:45 -3.5 °C -9.1 °C 34567.7 hPa SSW 11.9 km/h 11.9 km/h 54 % 0 mm
15:50 -3.6 °C -9.1 °C 34567.7 hPa SSE 20.9 km/h 20.9 km/h 54 % 0 mm
15:55 -3.6 °C -9.2 °C 34567.7 hPa SSW 25.9 km/h 25.9 km/h 54 % 0 mm
16:00 -3.6 °C -9.2 °C 34601.5 hPa WSW 25.1 km/h 25.1 km/h 54 % 0 mm
16:05 -3.7 °C -9.4 °C 34601.5 hPa SW 26.9 km/h 26.9 km/h 53 % 0 mm
16:10 -3.7 °C -9.4 °C 34601.5 hPa SSW 16.1 km/h 16.1 km/h 53 % 0 mm
16:11 -3.7 °C -9.4 °C 34601.5 hPa SSW 15 km/h 15 km/h 53 % 0 mm
16:16 -3.6 °C -9.2 °C 34567.7 hPa South 15 km/h 15 km/h 54 % 0 mm
16:21 -3.7 °C -9.4 °C 34567.7 hPa SW 14.5 km/h 14.5 km/h 53 % 0 mm
16:26 -3.6 °C -9.2 °C 34567.7 hPa SSE 20.9 km/h 20.9 km/h 54 % 0 mm
16:36 -3.6 °C -9.1 °C 34601.5 hPa SW 17.9 km/h 17.9 km/h 54 % 0 mm
16:41 -3.6 °C -9.2 °C 34601.5 hPa WSW 15 km/h 15 km/h 54 % 0 mm
16:46 -3.7 °C -9.2 °C 34567.7 hPa SSE 23.8 km/h 23.8 km/h 54 % 0 mm
16:51 -3.8 °C -9.3 °C 34567.7 hPa South 20.9 km/h 20.9 km/h 54 % 0 mm
16:56 -3.8 °C -9.4 °C 34567.7 hPa SW 20.9 km/h 20.9 km/h 54 % 0 mm
17:01 -3.8 °C -9.3 °C 34601.5 hPa WSW 32.8 km/h 32.8 km/h 54 % 0 mm
17:06 -3.9 °C -9.3 °C 34601.5 hPa WSW 20.9 km/h 20.9 km/h 55 % 0 mm
17:11 -3.9 °C -9.3 °C 34601.5 hPa South 23.8 km/h 23.8 km/h 55 % 0 mm
17:16 -3.9 °C -9.2 °C 34601.5 hPa WSW 15.6 km/h 15.6 km/h 56 % 0 mm
17:21 -4.1 °C -9.3 °C 34601.5 hPa SW 20.9 km/h 20.9 km/h 56 % 0 mm
17:26 -4.2 °C -9.3 °C 34601.5 hPa SW 26.9 km/h 26.9 km/h 57 % 0 mm
17:31 -4.2 °C -9.2 °C 34567.7 hPa SW 16.1 km/h 16.1 km/h 57 % 0 mm
17:36 -4.3 °C -9.3 °C 34567.7 hPa SSW 26.9 km/h 26.9 km/h 57 % 0 mm
17:41 -4.4 °C -9.3 °C 34567.7 hPa SW 15 km/h 15 km/h 58 % 0 mm
17:46 -4.4 °C -9.3 °C 34601.5 hPa SW 15 km/h 15 km/h 58 % 0 mm
17:51 -4.6 °C -9.1 °C 34601.5 hPa SW 26.9 km/h 26.9 km/h 60 % 0 mm
17:56 -4.7 °C -9.1 °C 34601.5 hPa South 15 km/h 15 km/h 61 % 0 mm
18:01 -4.7 °C -9.1 °C 34601.5 hPa SW 22 km/h 22 km/h 61 % 0 mm
18:06 -4.7 °C -9.1 °C 34601.5 hPa South 11.9 km/h 11.9 km/h 61 % 0 mm
18:11 -4.7 °C -9.1 °C 34601.5 hPa West 11.9 km/h 11.9 km/h 61 % 0 mm
18:16 -4.9 °C -9.2 °C 34601.5 hPa SW 23.8 km/h 23.8 km/h 62 % 0 mm
18:21 -4.9 °C -9.2 °C 34601.5 hPa WSW 15 km/h 15 km/h 62 % 0 mm
18:26 -4.9 °C -9.2 °C 34601.5 hPa SW 15 km/h 15 km/h 62 % 0 mm
18:31 -5.1 °C -9.2 °C 34601.5 hPa WSW 15 km/h 15 km/h 63 % 0 mm
18:36 -5.2 °C -9.3 °C 34601.5 hPa South 11.9 km/h 11.9 km/h 63 % 0 mm
18:41 -5.3 °C -9.3 °C 34601.5 hPa West 11.9 km/h 11.9 km/h 64 % 0 mm
18:46 -5.4 °C -9.2 °C 34601.5 hPa SW 20.9 km/h 20.9 km/h 65 % 0 mm
18:51 -5.5 °C -9.2 °C 34601.5 hPa WSW 17.9 km/h 17.9 km/h 66 % 0 mm
18:56 -5.6 °C -9.3 °C 34601.5 hPa West 17.9 km/h 17.9 km/h 66 % 0 mm
19:01 -5.7 °C -9.2 °C 34601.5 hPa SW 15 km/h 15 km/h 67 % 0 mm
19:06 -5.8 °C -9.2 °C 34601.5 hPa SSW 11.9 km/h 11.9 km/h 68 % 0 mm
19:11 -5.8 °C -9.3 °C 34601.5 hPa SW 15.6 km/h 15.6 km/h 68 % 0 mm
19:16 -5.9 °C -9.2 °C 34601.5 hPa SW 11.9 km/h 11.9 km/h 69 % 0 mm
19:20 -7.6 °C -9.1 °C 34635.4 hPa Calm     84 % 0 mm
19:21 -5.9 °C -9.2 °C 34601.5 hPa WSW 17.9 km/h 17.9 km/h 69 % 0 mm
19:26 -6.1 °C -9.2 °C 34601.5 hPa South 15.3 km/h 15.3 km/h 70 % 0 mm
19:30 -7.7 °C -9.1 °C 34669.3 hPa Calm     85 % 0 mm
19:36 -6.2 °C -9.2 °C 34601.5 hPa SSW 9.3 km/h 9.3 km/h 71 % 0 mm
19:40 -7.7 °C -9.1 °C 34669.3 hPa Calm   2.6 km/h 85 % 0 mm
19:41 -6.2 °C -9.3 °C 34601.5 hPa WSW 11.9 km/h 11.9 km/h 71 % 0 mm
19:46 -6.3 °C -9.3 °C 34601.5 hPa SW 17.9 km/h 17.9 km/h 71 % 0 mm
19:50 -7.7 °C -9.1 °C 34635.4 hPa Calm     85 % 0 mm
19:51 -6.4 °C -9.3 °C 34601.5 hPa SW 11.9 km/h 11.9 km/h 72 % 0 mm
19:56 -6.4 °C -9.3 °C 34601.5 hPa WSW 15 km/h 15 km/h 72 % 0 mm
20:00 -7.8 °C -9.2 °C 34669.3 hPa Calm     86 % 0 mm
20:06 -6.5 °C -9.3 °C 34601.5 hPa West 11.9 km/h 11.9 km/h 73 % 0 mm
20:10 -7.9 °C -9.2 °C 34669.3 hPa Calm   2.6 km/h 86 % 0 mm
20:11 -6.6 °C -9.3 °C 34601.5 hPa WSW 15 km/h 15 km/h 73 % 0 mm
20:16 -6.6 °C -9.4 °C 34635.4 hPa WSW 15 km/h 15 km/h 73 % 0 mm
20:20 -8 °C -9.3 °C 34635.4 hPa Calm     86 % 0 mm
20:21 -6.6 °C -9.3 °C 34635.4 hPa SW 6.3 km/h 6.3 km/h 74 % 0 mm
20:26 -6.7 °C -9.3 °C 34635.4 hPa SW 9 km/h 9 km/h 74 % 0 mm
20:30 -8.1 °C -9.4 °C 34635.4 hPa Calm     86 % 0 mm
20:31 -6.7 °C -9.3 °C 34635.4 hPa SSW 9 km/h 9 km/h 75 % 0 mm
20:36 -6.7 °C -9.3 °C 34635.4 hPa South 9.3 km/h 9.3 km/h 75 % 0 mm
20:40 -8.1 °C -9.4 °C 34635.4 hPa Calm     86 % 0 mm
20:41 -6.8 °C -9.3 °C 34635.4 hPa SW 9 km/h 9 km/h 76 % 0 mm
20:46 -6.8 °C -9.3 °C 34635.4 hPa SW 9 km/h 9 km/h 76 % 0 mm
20:50 -8.2 °C -9.4 °C 34669.3 hPa Calm     87 % 0 mm
20:51 -6.9 °C -9.3 °C 34635.4 hPa WSW 6 km/h 6 km/h 76 % 0 mm
20:56 -6.9 °C -9.3 °C 34635.4 hPa SSW 3.1 km/h 3.1 km/h 76 % 0 mm
21:01 -6.9 °C -9.3 °C 34635.4 hPa WSW 6 km/h 6 km/h 77 % 0 mm
21:06 -6.9 °C -9.3 °C 34635.4 hPa West 11.9 km/h 11.9 km/h 77 % 0 mm
21:10 -8.4 °C -9.7 °C 34669.3 hPa Calm   2.6 km/h 87 % 0 mm
21:11 -7 °C -9.3 °C 34635.4 hPa WSW 6 km/h 6 km/h 77 % 0 mm
21:16 -7.1 °C -9.3 °C 34635.4 hPa WSW 3.1 km/h   77 % 0 mm
21:20 -8.5 °C -9.7 °C 34669.3 hPa Calm   5.1 km/h 87 % 0 mm
21:21 -7.1 °C -9.3 °C 34635.4 hPa SW 6 km/h 6 km/h 77 % 0 mm
21:26 -7.1 °C -9.3 °C 34635.4 hPa WSW 3.7 km/h 3.7 km/h 78 % 0 mm
21:30 -8.6 °C -9.7 °C 34669.3 hPa Calm     88 % 0 mm
21:31 -7.1 °C -9.4 °C 34635.4 hPa SW 9 km/h 9 km/h 77 % 0 mm
21:36 -7.2 °C -9.3 °C 34635.4 hPa WSW 6.8 km/h 6.8 km/h 78 % 0 mm
21:40 -8.7 °C -9.8 °C 34669.3 hPa Calm     88 % 0 mm
21:41 -7.2 °C -9.3 °C 34635.4 hPa WSW 6 km/h 6 km/h 78 % 0 mm
21:46 -7.2 °C -9.3 °C 34635.4 hPa SW 7.6 km/h 7.6 km/h 79 % 0 mm
21:50 -8.7 °C -9.8 °C 34669.3 hPa Calm     88 % 0 mm
21:51 -7.2 °C -9.4 °C 34635.4 hPa WNW 6.3 km/h 6.3 km/h 78 % 0 mm
21:56 -7.2 °C -9.3 °C 34635.4 hPa West 9 km/h 9 km/h 79 % 0 mm
22:00 -8.7 °C -9.8 °C 34635.4 hPa Calm     88 % 0 mm
22:01 -7.2 °C -9.3 °C 34635.4 hPa SW 6 km/h 6 km/h 79 % 0 mm
22:06 -7.2 °C -9.3 °C 34635.4 hPa SW 6 km/h 6 km/h 79 % 0 mm
22:10 -8.8 °C -9.8 °C 34635.4 hPa Calm     89 % 0 mm
22:11 -7.2 °C -9.2 °C 34635.4 hPa SW 3.7 km/h 3.7 km/h 80 % 0 mm
22:16 -7.3 °C -9.1 °C 34669.3 hPa SW 7.6 km/h 7.6 km/h 81 % 0 mm
22:20 -8.8 °C -9.8 °C 34635.4 hPa Calm     89 % 0 mm
22:21 -7.3 °C -9.1 °C 34669.3 hPa SW 6 km/h 6 km/h 81 % 0 mm
22:26 -7.3 °C -9.2 °C 34669.3 hPa SW 6 km/h 6 km/h 81 % 0 mm
22:30 -8.8 °C -9.8 °C 34635.4 hPa Calm     89 % 0 mm
22:31 -7.3 °C -9.1 °C 34669.3 hPa WSW 5.6 km/h 5.6 km/h 82 % 0 mm
22:40 -9 °C -10 °C 34635.4 hPa Calm     89 % 0 mm
22:41 -7.4 °C -9.1 °C 34669.3 hPa West 3.1 km/h   82 % 0 mm
22:46 -7.4 °C -9.1 °C 34669.3 hPa West 6 km/h   82 % 0 mm
22:51 -7.4 °C -9 °C 34669.3 hPa Calm     83 % 0 mm
22:52 -7.4 °C -9 °C 34669.3 hPa Calm     83 % 0 mm
22:57 -7.4 °C -9.1 °C 34669.3 hPa Calm     83 % 0 mm
23:00 -9.2 °C -10.3 °C 34669.3 hPa SSE 2.6 km/h 5.1 km/h 88 % 0 mm
23:02 -7.4 °C -9.1 °C 34669.3 hPa Calm     83 % 0 mm
23:07 -7.4 °C -9.1 °C 34669.3 hPa West 4.2 km/h 4.2 km/h 83 % 0 mm
23:10 -9.2 °C -10.2 °C 34669.3 hPa SW 2.6 km/h 5.1 km/h 89 % 0 mm
23:12 -7.4 °C -9.1 °C 34669.3 hPa West 6 km/h 6 km/h 83 % 0 mm
23:17 -7.4 °C -9.2 °C 34669.3 hPa West 6 km/h 6 km/h 82 % 0 mm
23:20 -9.2 °C -10.2 °C 34669.3 hPa SW 2.6 km/h 5.1 km/h 89 % 0 mm
23:22 -7.5 °C -9.1 °C 34669.3 hPa Calm     83 % 0 mm
23:27 -7.5 °C -9.1 °C 34669.3 hPa West 3.1 km/h   83 % 0 mm
23:32 -7.5 °C -9.1 °C 34669.3 hPa West 6 km/h 6 km/h 83 % 0 mm
23:37 -7.5 °C -9.1 °C 34669.3 hPa West 3.7 km/h 3.7 km/h 83 % 0 mm
23:40 -9.3 °C -10.3 °C 34669.3 hPa SW 2.6 km/h 5.1 km/h 89 % 0 mm
23:42 -7.5 °C -9.1 °C 34669.3 hPa West 3.7 km/h 3.7 km/h 83 % 0 mm
23:47 -7.5 °C -9.1 °C 34669.3 hPa Calm     84 % 0 mm
23:50 -9.4 °C -10.3 °C 34669.3 hPa Calm   5.1 km/h 90 % 0 mm
23:52 -7.6 °C -9.1 °C 34669.3 hPa Calm     84 % 0 mm
23:57 -7.6 °C -9.1 °C 34669.3 hPa Calm     84 % 0 mm
Meteo Sesrovires
Elogis d' Weather Underground - 3.75 mb

Guio original per  Jim McMurry - jmcmurry@mwt.net Adaptat per a la plantilla per  Wim van der Kuil - Leuven-Template.eu

Trobareu la nostra informacio del temps tambe a:

Weather Underground

AWEKAS